EIDW - Dublin
Distance from station: E 5mi, 14km
Updated: 07/23/2018 8:00am
Mostly Cloudy
Mostly Cloudy
 Wind from SW
Wind: SW 12 mph , 19 km/h
Temperature: 79°F , 26°C
Dew Point: 59°F , 15°C
Humidity: 51%
Barometer: 29.88 inHg , 1012 hPa
Clouds: Mostly Cloudy
Visibility: 6 miles , 10 km
Cloud details: Few Clouds 600 ft
Partly Cloudy 2000 ft
Mostly Cloudy 3000 ft
2018/07/23 15:00 EIDW 231500Z 23010KT 180V280 9999 FEW006 SCT020 BKN030 26/15 Q1012 NOSIG